createdAt,value
2022-12-27T00:00:43.602Z,75.53
2022-12-27T00:01:43.448Z,75.50
2022-12-27T00:02:43.427Z,75.53
2022-12-27T00:03:43.370Z,75.60
2022-12-27T00:04:43.360Z,75.53
2022-12-27T00:05:43.368Z,75.50
2022-12-27T00:06:43.331Z,75.50
2022-12-27T00:07:43.315Z,75.53
2022-12-27T00:08:43.309Z,75.53
2022-12-27T00:09:43.309Z,75.53
2022-12-27T00:10:43.292Z,75.53
2022-12-27T00:11:43.279Z,75.53
2022-12-27T00:12:43.252Z,75.53
2022-12-27T00:13:43.264Z,75.53
2022-12-27T00:14:43.228Z,75.53
2022-12-27T00:15:43.219Z,75.53
2022-12-27T00:16:43.261Z,75.53
2022-12-27T00:17:43.184Z,75.53
2022-12-27T00:18:43.181Z,75.53
2022-12-27T00:19:43.164Z,75.53
2022-12-27T00:20:43.150Z,75.53
2022-12-27T00:21:43.154Z,75.63
2022-12-27T00:22:43.123Z,75.53
2022-12-27T00:23:43.122Z,75.53
2022-12-27T00:24:43.099Z,75.63
2022-12-27T00:25:43.077Z,75.53
2022-12-27T00:26:43.066Z,75.53
2022-12-27T00:27:43.060Z,75.63
2022-12-27T00:28:43.048Z,75.63
2022-12-27T00:29:43.028Z,75.63
2022-12-27T00:30:43.015Z,75.67
2022-12-27T00:31:43.083Z,75.78
2022-12-27T00:32:42.996Z,75.74
2022-12-27T00:33:42.983Z,75.78
2022-12-27T00:34:42.974Z,75.78
2022-12-27T00:35:42.951Z,75.78
2022-12-27T00:36:43.023Z,75.78
2022-12-27T00:37:43.049Z,75.78
2022-12-27T00:38:42.932Z,75.78
2022-12-27T00:39:42.962Z,75.78
2022-12-27T00:40:42.887Z,75.88
2022-12-27T00:41:42.874Z,75.88
2022-12-27T00:42:42.866Z,75.88
2022-12-27T00:43:42.848Z,75.88
2022-12-27T00:44:42.841Z,75.88
2022-12-27T00:45:42.840Z,75.88
2022-12-27T00:46:42.816Z,75.88
2022-12-27T00:47:42.792Z,75.92
2022-12-27T00:48:42.787Z,75.88
2022-12-27T00:49:42.769Z,76.02
2022-12-27T00:50:42.763Z,76.02
2022-12-27T00:51:42.749Z,76.12
2022-12-27T00:52:42.729Z,76.02
2022-12-27T00:53:42.741Z,76.15
2022-12-27T00:54:42.722Z,76.26
2022-12-27T00:55:42.692Z,76.23
2022-12-27T00:56:42.673Z,76.26
2022-12-27T00:57:42.666Z,76.26
2022-12-27T00:58:42.663Z,76.26
2022-12-27T00:59:42.650Z,76.36
2022-12-27T01:00:42.698Z,76.36
2022-12-27T01:01:42.807Z,76.36
2022-12-27T01:02:42.607Z,76.36
2022-12-27T01:03:42.630Z,76.40
2022-12-27T01:04:42.571Z,76.50
2022-12-27T01:05:42.553Z,76.50
2022-12-27T01:06:42.546Z,76.50
2022-12-27T01:07:42.527Z,76.50
2022-12-27T01:08:42.530Z,76.61
2022-12-27T01:09:42.532Z,76.64
2022-12-27T01:10:42.495Z,76.71
2022-12-27T01:11:42.473Z,76.75
2022-12-27T01:12:42.464Z,76.71
2022-12-27T01:13:42.450Z,76.85
2022-12-27T01:14:42.440Z,76.75
2022-12-27T01:15:42.435Z,76.95
2022-12-27T01:16:42.455Z,76.95
2022-12-27T01:17:42.400Z,76.85
2022-12-27T01:18:42.392Z,76.85
2022-12-27T01:19:42.373Z,76.95
2022-12-27T01:20:42.364Z,76.95
2022-12-27T01:21:42.340Z,76.99
2022-12-27T01:22:42.330Z,76.95
2022-12-27T01:23:42.316Z,76.99
2022-12-27T01:24:42.305Z,76.95
2022-12-27T01:25:42.309Z,77.09
2022-12-27T01:26:42.272Z,77.09
2022-12-27T01:27:42.273Z,77.09
2022-12-27T01:28:42.255Z,77.09
2022-12-27T01:29:42.230Z,77.20
2022-12-27T01:30:42.572Z,77.20
2022-12-27T01:31:42.252Z,77.20
2022-12-27T01:32:42.201Z,77.09
2022-12-27T01:33:42.199Z,77.20
2022-12-27T01:34:42.194Z,77.20
2022-12-27T01:35:42.155Z,77.20
2022-12-27T01:36:42.144Z,77.20
2022-12-27T01:37:42.130Z,77.20
2022-12-27T01:38:42.114Z,77.20
2022-12-27T01:39:42.111Z,77.20
2022-12-27T01:40:42.095Z,77.20
2022-12-27T01:41:42.119Z,77.30
2022-12-27T01:42:42.070Z,77.20
2022-12-27T01:43:42.057Z,77.23
2022-12-27T01:44:42.036Z,77.33
2022-12-27T01:45:42.073Z,77.40
2022-12-27T01:46:42.012Z,77.33
2022-12-27T01:47:41.996Z,77.40
2022-12-27T01:48:41.987Z,77.44
2022-12-27T01:49:42.019Z,77.44
2022-12-27T01:50:41.960Z,77.44
2022-12-27T01:51:41.946Z,77.44
2022-12-27T01:52:41.936Z,77.40
2022-12-27T01:53:41.939Z,77.44
2022-12-27T01:54:41.904Z,77.44
2022-12-27T01:55:41.895Z,77.54
2022-12-27T01:56:41.881Z,77.44
2022-12-27T01:57:41.903Z,77.54
2022-12-27T01:58:41.857Z,77.44
2022-12-27T01:59:41.848Z,77.54
2022-12-27T02:00:41.824Z,77.68
2022-12-27T02:01:41.886Z,77.64
2022-12-27T02:02:41.951Z,77.64
2022-12-27T02:03:41.780Z,77.64
2022-12-27T02:04:41.766Z,77.64
2022-12-27T02:05:41.838Z,77.68
2022-12-27T02:06:41.748Z,77.68
2022-12-27T02:07:41.729Z,77.78
2022-12-27T02:08:41.718Z,77.75
2022-12-27T02:09:41.704Z,77.78
2022-12-27T02:10:41.695Z,77.78
2022-12-27T02:11:41.678Z,77.78
2022-12-27T02:12:41.671Z,77.78
2022-12-27T02:13:41.674Z,77.89
2022-12-27T02:14:41.636Z,77.89
2022-12-27T02:15:41.620Z,77.99
2022-12-27T02:16:41.671Z,77.92
2022-12-27T02:17:41.597Z,78.03
2022-12-27T02:18:41.583Z,78.13
2022-12-27T02:19:41.584Z,78.17
2022-12-27T02:20:41.557Z,78.17
2022-12-27T02:21:41.562Z,78.27
2022-12-27T02:22:41.535Z,78.27
2022-12-27T02:23:41.518Z,78.34
2022-12-27T02:24:41.520Z,78.27
2022-12-27T02:25:41.494Z,78.38
2022-12-27T02:26:41.480Z,78.38
2022-12-27T02:27:41.464Z,78.48
2022-12-27T02:28:41.453Z,78.41
2022-12-27T02:29:41.464Z,78.52
2022-12-27T02:30:41.482Z,78.58
2022-12-27T02:31:41.408Z,78.62
2022-12-27T02:32:41.402Z,78.62
2022-12-27T02:33:41.389Z,78.62
2022-12-27T02:34:41.376Z,78.58
2022-12-27T02:35:41.367Z,78.58
2022-12-27T02:36:41.356Z,78.62
2022-12-27T02:37:41.332Z,78.52
2022-12-27T02:38:41.315Z,78.62
2022-12-27T02:39:41.307Z,78.52
2022-12-27T02:40:41.290Z,78.62
2022-12-27T02:41:41.277Z,78.62
2022-12-27T02:42:41.276Z,78.72
2022-12-27T02:43:41.247Z,78.62
2022-12-27T02:44:41.235Z,78.72
2022-12-27T02:45:41.414Z,78.72
2022-12-27T02:46:41.272Z,78.86
2022-12-27T02:47:41.198Z,78.86
2022-12-27T02:48:41.184Z,78.86
2022-12-27T02:49:41.172Z,78.86
2022-12-27T02:50:41.162Z,78.86
2022-12-27T02:51:41.155Z,78.97
2022-12-27T02:52:41.132Z,79.07
2022-12-27T02:53:41.118Z,78.97
2022-12-27T02:54:41.108Z,78.97
2022-12-27T02:55:41.096Z,79.11
2022-12-27T02:56:41.081Z,79.07
2022-12-27T02:57:41.066Z,78.97
2022-12-27T02:58:41.064Z,78.97
2022-12-27T02:59:41.039Z,79.07
2022-12-27T03:00:41.020Z,79.07
2022-12-27T03:01:41.100Z,79.17
2022-12-27T03:02:41.161Z,79.07
2022-12-27T03:03:44.417Z,79.11
2022-12-27T03:04:40.970Z,79.21
2022-12-27T03:05:40.954Z,79.21
2022-12-27T03:06:40.943Z,79.21
2022-12-27T03:07:40.927Z,79.21
2022-12-27T03:08:40.916Z,79.21
2022-12-27T03:09:40.908Z,79.25
2022-12-27T03:10:40.894Z,79.35
2022-12-27T03:11:40.876Z,79.35
2022-12-27T03:12:40.864Z,79.35
2022-12-27T03:13:40.849Z,79.35
2022-12-27T03:14:40.841Z,79.46
2022-12-27T03:15:40.831Z,79.46
2022-12-27T03:16:40.812Z,79.46
2022-12-27T03:17:40.811Z,79.56
2022-12-27T03:18:40.780Z,79.60
2022-12-27T03:19:40.775Z,79.60
2022-12-27T03:20:40.748Z,79.60
2022-12-27T03:21:40.741Z,79.60
2022-12-27T03:22:40.723Z,79.60
2022-12-27T03:23:40.706Z,79.66
2022-12-27T03:24:40.694Z,79.60
2022-12-27T03:25:40.691Z,79.70
2022-12-27T03:26:40.674Z,79.70
2022-12-27T03:27:40.658Z,79.70
2022-12-27T03:28:40.644Z,79.70
2022-12-27T03:29:40.642Z,79.80
2022-12-27T03:30:40.720Z,79.80
2022-12-27T03:31:40.608Z,79.80
2022-12-27T03:32:40.595Z,79.80
2022-12-27T03:33:40.594Z,79.70
2022-12-27T03:34:40.561Z,79.84
2022-12-27T03:35:40.747Z,79.80
2022-12-27T03:36:40.543Z,79.80
2022-12-27T03:37:40.527Z,79.80
2022-12-27T03:38:40.512Z,79.80
2022-12-27T03:39:40.497Z,79.84
2022-12-27T03:40:40.483Z,79.91
2022-12-27T03:41:40.467Z,80.05
2022-12-27T03:42:40.464Z,79.94
2022-12-27T03:43:40.452Z,80.09
2022-12-27T03:44:40.431Z,80.09
2022-12-27T03:45:40.411Z,80.19
2022-12-27T03:46:40.438Z,80.09
2022-12-27T03:47:40.389Z,80.19
2022-12-27T03:48:40.384Z,80.19
2022-12-27T03:49:40.409Z,80.19
2022-12-27T03:50:40.357Z,80.19
2022-12-27T03:51:40.355Z,80.19
2022-12-27T03:52:40.316Z,80.19
2022-12-27T03:53:40.306Z,80.30
2022-12-27T03:54:40.307Z,80.40
2022-12-27T03:55:40.283Z,80.30
2022-12-27T03:56:40.268Z,80.40
2022-12-27T03:57:40.258Z,80.30
2022-12-27T03:58:40.246Z,80.33
2022-12-27T03:59:40.238Z,80.44
2022-12-27T04:00:40.229Z,80.44
2022-12-27T04:01:40.273Z,80.44
2022-12-27T04:02:40.387Z,80.44
2022-12-27T04:03:40.253Z,80.54
2022-12-27T04:04:40.171Z,80.54
2022-12-27T04:05:40.179Z,80.54
2022-12-27T04:06:40.135Z,80.54
2022-12-27T04:07:40.128Z,80.54
2022-12-27T04:08:40.109Z,80.68
2022-12-27T04:09:40.105Z,80.54
2022-12-27T04:10:40.097Z,80.65
2022-12-27T04:11:40.073Z,80.68
2022-12-27T04:12:40.070Z,80.54
2022-12-27T04:13:40.104Z,80.65
2022-12-27T04:14:40.047Z,80.65
2022-12-27T04:15:40.099Z,80.65
2022-12-27T04:16:40.013Z,80.54
2022-12-27T04:17:39.997Z,80.65
2022-12-27T04:18:39.985Z,80.54
2022-12-27T04:19:39.976Z,80.65
2022-12-27T04:20:39.959Z,80.68
2022-12-27T04:21:39.969Z,80.68
2022-12-27T04:22:39.928Z,80.65
2022-12-27T04:23:39.920Z,80.68
2022-12-27T04:24:39.904Z,80.75
2022-12-27T04:25:39.891Z,80.65
2022-12-27T04:26:39.875Z,80.65
2022-12-27T04:27:39.864Z,80.65
2022-12-27T04:28:39.855Z,80.65
2022-12-27T04:29:39.847Z,80.65
2022-12-27T04:30:39.837Z,80.65
2022-12-27T04:31:39.908Z,80.68
2022-12-27T04:32:39.802Z,80.79
2022-12-27T04:33:39.795Z,80.79
2022-12-27T04:34:39.777Z,80.79
2022-12-27T04:35:39.766Z,80.89
2022-12-27T04:36:39.755Z,80.79
2022-12-27T04:37:39.878Z,80.89
2022-12-27T04:38:39.721Z,80.89
2022-12-27T04:39:39.712Z,80.89
2022-12-27T04:40:39.705Z,80.89
2022-12-27T04:41:39.686Z,80.89
2022-12-27T04:42:39.674Z,80.99
2022-12-27T04:43:39.657Z,81.03
2022-12-27T04:44:39.653Z,81.03
2022-12-27T04:45:39.635Z,81.13
2022-12-27T04:46:39.656Z,81.03
2022-12-27T04:47:39.610Z,81.13
2022-12-27T04:48:39.590Z,81.18
2022-12-27T04:49:39.575Z,81.18
2022-12-27T04:50:39.563Z,81.13
2022-12-27T04:51:39.549Z,81.18
2022-12-27T04:52:39.538Z,81.18
2022-12-27T04:53:39.590Z,81.28
2022-12-27T04:54:39.512Z,81.28
2022-12-27T04:55:39.504Z,81.28
2022-12-27T04:56:39.489Z,81.28
2022-12-27T04:57:39.473Z,81.38
2022-12-27T04:58:39.462Z,81.38
2022-12-27T04:59:39.453Z,81.38
2022-12-27T05:00:39.438Z,81.38
2022-12-27T05:01:39.558Z,81.42
2022-12-27T05:02:39.561Z,81.49
2022-12-27T05:03:39.418Z,81.42
2022-12-27T05:04:39.373Z,81.52
2022-12-27T05:05:39.367Z,81.49
2022-12-27T05:06:39.362Z,81.49
2022-12-27T05:07:39.340Z,81.52
2022-12-27T05:08:39.349Z,81.52
2022-12-27T05:09:39.336Z,81.52
2022-12-27T05:10:39.299Z,81.63
2022-12-27T05:11:39.295Z,81.63
2022-12-27T05:12:39.278Z,81.63
2022-12-27T05:13:39.267Z,81.63
2022-12-27T05:14:39.243Z,81.63
2022-12-27T05:15:39.236Z,81.63
2022-12-27T05:16:39.217Z,81.63
2022-12-27T05:17:39.209Z,81.73
2022-12-27T05:18:39.196Z,81.63
2022-12-27T05:19:39.187Z,81.63
2022-12-27T05:20:39.167Z,81.67
2022-12-27T05:21:39.170Z,81.63
2022-12-27T05:22:39.148Z,81.63
2022-12-27T05:23:39.131Z,81.63
2022-12-27T05:24:39.122Z,81.73
2022-12-27T05:25:39.129Z,81.73
2022-12-27T05:26:39.084Z,81.77
2022-12-27T05:27:39.081Z,81.77
2022-12-27T05:28:39.058Z,81.77
2022-12-27T05:29:39.045Z,81.77
2022-12-27T05:30:39.048Z,81.73
2022-12-27T05:31:39.080Z,81.87
2022-12-27T05:32:39.005Z,81.87
2022-12-27T05:33:39.000Z,81.87
2022-12-27T05:34:38.981Z,81.87
2022-12-27T05:35:38.973Z,81.87
2022-12-27T05:36:38.959Z,81.87
2022-12-27T05:37:38.948Z,81.87
2022-12-27T05:38:38.936Z,81.87
2022-12-27T05:39:38.926Z,81.87
2022-12-27T05:40:38.907Z,81.87
2022-12-27T05:41:38.907Z,81.87
2022-12-27T05:42:38.876Z,82.02
2022-12-27T05:43:38.863Z,81.87
2022-12-27T05:44:38.851Z,81.87
2022-12-27T05:45:38.840Z,81.87
2022-12-27T05:46:38.889Z,81.87
2022-12-27T05:47:38.813Z,81.87
2022-12-27T05:48:38.799Z,81.98
2022-12-27T05:49:38.784Z,81.87
2022-12-27T05:50:38.766Z,81.98
2022-12-27T05:51:38.755Z,81.98
2022-12-27T05:52:41.182Z,81.87
2022-12-27T05:53:38.762Z,81.98
2022-12-27T05:54:38.729Z,81.98
2022-12-27T05:55:38.708Z,81.98
2022-12-27T05:56:38.688Z,81.98
2022-12-27T05:57:38.712Z,82.02
2022-12-27T05:58:38.663Z,82.02
2022-12-27T05:59:38.651Z,81.98
2022-12-27T06:00:38.638Z,82.12
2022-12-27T06:01:38.737Z,82.12
2022-12-27T06:02:38.816Z,82.02
2022-12-27T06:03:38.638Z,82.12
2022-12-27T06:04:38.592Z,82.12
2022-12-27T06:05:38.575Z,82.12
2022-12-27T06:06:38.557Z,82.12
2022-12-27T06:07:38.543Z,82.12
2022-12-27T06:08:38.534Z,82.12
2022-12-27T06:09:38.518Z,82.12
2022-12-27T06:10:38.501Z,82.09
2022-12-27T06:11:38.492Z,82.12
2022-12-27T06:12:38.474Z,82.09
2022-12-27T06:13:38.492Z,82.09
2022-12-27T06:14:38.455Z,82.02
2022-12-27T06:15:38.448Z,82.12
2022-12-27T06:16:38.463Z,82.12
2022-12-27T06:17:38.418Z,82.02
2022-12-27T06:18:38.396Z,82.12
2022-12-27T06:19:38.389Z,82.12
2022-12-27T06:20:38.374Z,82.12
2022-12-27T06:21:38.362Z,82.12
2022-12-27T06:22:38.350Z,82.23
2022-12-27T06:23:38.344Z,82.23
2022-12-27T06:24:38.321Z,82.23
2022-12-27T06:25:38.316Z,82.26
2022-12-27T06:26:38.296Z,82.23
2022-12-27T06:27:38.284Z,82.23
2022-12-27T06:28:38.263Z,82.23
2022-12-27T06:29:38.279Z,82.23
2022-12-27T06:30:38.242Z,82.23
2022-12-27T06:31:38.334Z,82.23
2022-12-27T06:32:38.210Z,82.23
2022-12-27T06:33:38.213Z,82.23
2022-12-27T06:34:38.203Z,82.02
2022-12-27T06:35:38.180Z,82.09
2022-12-27T06:36:38.166Z,82.02
2022-12-27T06:37:38.153Z,82.12
2022-12-27T06:38:38.139Z,82.12
2022-12-27T06:39:38.123Z,82.12
2022-12-27T06:40:38.111Z,81.98
2022-12-27T06:41:38.107Z,81.98
2022-12-27T06:42:38.087Z,82.02
2022-12-27T06:43:38.080Z,82.02
2022-12-27T06:44:38.059Z,82.02
2022-12-27T06:45:38.123Z,81.98
2022-12-27T06:46:38.037Z,81.98
2022-12-27T06:47:38.025Z,82.02
2022-12-27T06:48:38.007Z,82.02
2022-12-27T06:49:38.010Z,81.87
2022-12-27T06:50:37.980Z,81.98
2022-12-27T06:51:37.969Z,81.98
2022-12-27T06:52:37.959Z,81.87
2022-12-27T06:53:37.941Z,81.87
2022-12-27T06:54:37.933Z,81.98
2022-12-27T06:55:37.913Z,81.84
2022-12-27T06:56:37.899Z,81.87
2022-12-27T06:57:37.892Z,81.98
2022-12-27T06:58:37.876Z,81.98
2022-12-27T06:59:37.869Z,81.87
2022-12-27T07:00:37.867Z,81.87
2022-12-27T07:01:38.010Z,81.92
2022-12-27T07:02:37.930Z,81.98
2022-12-27T07:03:37.820Z,81.87
2022-12-27T07:04:37.808Z,81.87
2022-12-27T07:05:37.785Z,81.95
2022-12-27T07:06:37.773Z,81.84
2022-12-27T07:07:37.763Z,81.84
2022-12-27T07:08:37.742Z,81.84
2022-12-27T07:09:37.732Z,81.73
2022-12-27T07:10:37.718Z,81.73
2022-12-27T07:11:37.721Z,81.73
2022-12-27T07:12:37.700Z,81.84
2022-12-27T07:13:37.677Z,81.73
2022-12-27T07:14:37.668Z,81.73
2022-12-27T07:15:37.654Z,81.73
2022-12-27T07:16:37.744Z,81.73
2022-12-27T07:17:37.646Z,81.84
2022-12-27T07:18:37.608Z,81.73
2022-12-27T07:19:37.600Z,81.87
2022-12-27T07:20:37.581Z,81.73
2022-12-27T07:21:37.570Z,81.73
2022-12-27T07:22:37.559Z,81.73
2022-12-27T07:23:37.553Z,81.84
2022-12-27T07:24:37.528Z,81.73
2022-12-27T07:25:37.525Z,81.73
2022-12-27T07:26:37.504Z,81.73
2022-12-27T07:27:37.500Z,81.73
2022-12-27T07:28:37.474Z,81.73
2022-12-27T07:29:43.519Z,81.84
2022-12-27T07:30:38.482Z,81.84
2022-12-27T07:31:37.487Z,81.73
2022-12-27T07:32:37.432Z,81.87
2022-12-27T07:33:37.457Z,81.73
2022-12-27T07:34:37.397Z,81.84
2022-12-27T07:35:42.129Z,81.77
2022-12-27T07:36:38.399Z,81.77
2022-12-27T07:37:37.352Z,81.77
2022-12-27T07:38:37.350Z,81.77
2022-12-27T07:39:37.330Z,81.77
2022-12-27T07:40:37.316Z,81.87
2022-12-27T07:41:37.311Z,81.73
2022-12-27T07:42:37.302Z,81.73
2022-12-27T07:43:37.284Z,81.77
2022-12-27T07:44:37.271Z,81.73
2022-12-27T07:45:37.272Z,81.73
2022-12-27T07:46:37.242Z,81.77
2022-12-27T07:47:37.226Z,81.73
2022-12-27T07:48:37.212Z,81.73
2022-12-27T07:49:37.228Z,81.73
2022-12-27T07:50:37.210Z,81.73
2022-12-27T07:51:37.170Z,81.73
2022-12-27T07:52:37.159Z,81.73
2022-12-27T07:53:37.154Z,81.73
2022-12-27T07:54:37.137Z,81.73
2022-12-27T07:55:37.124Z,81.63
2022-12-27T07:56:37.105Z,81.73
2022-12-27T07:57:37.094Z,81.63
2022-12-27T07:58:37.084Z,81.63
2022-12-27T07:59:37.074Z,81.63
2022-12-27T08:00:37.059Z,81.63
2022-12-27T08:01:37.139Z,81.63
2022-12-27T08:02:37.086Z,81.63
2022-12-27T08:03:37.116Z,81.63
2022-12-27T08:04:37.017Z,81.52
2022-12-27T08:05:37.021Z,81.59
2022-12-27T08:06:36.978Z,81.63
2022-12-27T08:07:36.965Z,81.63
2022-12-27T08:08:36.974Z,81.52
2022-12-27T08:09:36.937Z,81.63
2022-12-27T08:10:36.932Z,81.52
2022-12-27T08:11:36.914Z,81.63
2022-12-27T08:12:36.904Z,81.52
2022-12-27T08:13:36.912Z,81.52
2022-12-27T08:14:36.867Z,81.52
2022-12-27T08:15:36.856Z,81.52
2022-12-27T08:16:36.878Z,81.52
2022-12-27T08:17:36.830Z,81.49
2022-12-27T08:18:36.816Z,81.38
2022-12-27T08:19:36.799Z,81.38
2022-12-27T08:20:36.804Z,81.35
2022-12-27T08:21:36.809Z,81.24
2022-12-27T08:22:36.770Z,81.28
2022-12-27T08:23:36.757Z,81.28
2022-12-27T08:24:36.738Z,81.24
2022-12-27T08:25:36.725Z,81.28
2022-12-27T08:26:36.713Z,81.13
2022-12-27T08:27:36.720Z,81.28
2022-12-27T08:28:36.693Z,81.13
2022-12-27T08:29:36.668Z,81.13
2022-12-27T08:30:36.725Z,81.13
2022-12-27T08:31:36.641Z,81.13
2022-12-27T08:32:36.635Z,81.13
2022-12-27T08:33:36.618Z,81.03
2022-12-27T08:34:36.606Z,81.03
2022-12-27T08:35:53.757Z,80.99
2022-12-27T08:36:54.794Z,80.93
2022-12-27T08:37:37.627Z,80.89
2022-12-27T08:38:36.571Z,80.89
2022-12-27T08:39:36.541Z,80.93
2022-12-27T08:40:36.535Z,80.89
2022-12-27T08:41:36.521Z,80.89
2022-12-27T08:42:36.505Z,80.89
2022-12-27T08:43:36.492Z,80.82
2022-12-27T08:44:36.479Z,80.79
2022-12-27T08:45:36.468Z,80.79
2022-12-27T08:46:36.528Z,80.79
2022-12-27T08:47:36.439Z,80.68
2022-12-27T08:48:36.453Z,80.79
2022-12-27T08:49:36.410Z,80.68
2022-12-27T08:50:36.400Z,80.65
2022-12-27T08:51:41.208Z,80.65
2022-12-27T08:52:36.370Z,80.54
2022-12-27T08:53:36.384Z,80.54
2022-12-27T08:54:36.360Z,80.54
2022-12-27T08:55:36.339Z,80.51
2022-12-27T08:56:36.337Z,80.40
2022-12-27T08:57:36.310Z,80.30
2022-12-27T08:58:36.297Z,80.40
2022-12-27T08:59:36.277Z,80.30
2022-12-27T09:00:36.266Z,80.30
2022-12-27T09:01:36.377Z,80.30
2022-12-27T09:02:36.311Z,80.19
2022-12-27T09:03:36.258Z,80.19
2022-12-27T09:04:36.221Z,80.05
2022-12-27T09:05:41.364Z,80.05
2022-12-27T09:06:36.198Z,80.05
2022-12-27T09:07:36.183Z,79.94
2022-12-27T09:08:36.170Z,79.94
2022-12-27T09:09:36.176Z,79.94
2022-12-27T09:10:36.151Z,79.91
2022-12-27T09:11:36.139Z,79.80
2022-12-27T09:12:36.116Z,79.80
2022-12-27T09:13:36.110Z,79.70
2022-12-27T09:14:36.085Z,79.70
2022-12-27T09:15:36.159Z,79.70
2022-12-27T09:16:36.060Z,79.66
2022-12-27T09:17:36.050Z,79.60
2022-12-27T09:18:36.039Z,79.60
2022-12-27T09:19:36.022Z,79.56
2022-12-27T09:20:36.025Z,79.46
2022-12-27T09:21:35.992Z,79.56
2022-12-27T09:22:36.003Z,79.46
2022-12-27T09:23:35.965Z,79.46
2022-12-27T09:24:35.949Z,79.35
2022-12-27T09:25:36.205Z,79.35
2022-12-27T09:26:35.923Z,79.25
2022-12-27T09:27:35.914Z,79.25
2022-12-27T09:28:35.953Z,79.21
2022-12-27T09:29:35.920Z,79.25
2022-12-27T09:30:35.870Z,79.25
2022-12-27T09:31:35.890Z,79.35
2022-12-27T09:32:35.849Z,79.11
2022-12-27T09:33:35.835Z,79.11
2022-12-27T09:34:35.850Z,79.00
2022-12-27T09:35:38.641Z,79.00
2022-12-27T09:36:35.781Z,79.17
2022-12-27T09:37:35.794Z,78.90
2022-12-27T09:38:35.762Z,78.86
2022-12-27T09:39:35.745Z,78.86
2022-12-27T09:40:35.738Z,78.76
2022-12-27T09:43:06.185Z,78.72
2022-12-27T09:43:36.719Z,78.72
2022-12-27T09:44:35.686Z,79.14
2022-12-27T09:45:35.690Z,78.93
2022-12-27T09:46:35.733Z,79.03
2022-12-27T09:47:35.645Z,78.83
2022-12-27T09:48:35.627Z,79.41
2022-12-27T09:49:35.611Z,79.14
2022-12-27T09:50:35.616Z,79.31
2022-12-27T09:51:35.593Z,79.31
2022-12-27T09:52:35.571Z,79.27
2022-12-27T09:53:35.586Z,79.52
2022-12-27T09:54:35.568Z,79.38
2022-12-27T09:55:35.572Z,79.06
2022-12-27T09:57:09.680Z,79.38
2022-12-27T09:57:36.563Z,79.34
2022-12-27T09:58:35.499Z,79.65
2022-12-27T09:59:35.496Z,79.97
2022-12-27T10:00:37.214Z,79.86
2022-12-27T10:01:35.616Z,80.59
2022-12-27T10:02:35.548Z,80.35
2022-12-27T10:03:35.425Z,80.24
2022-12-27T10:05:09.772Z,81.70
2022-12-27T10:05:36.525Z,80.97
2022-12-27T10:06:35.391Z,81.70
2022-12-27T10:07:35.382Z,84.60
2022-12-27T10:08:35.365Z,83.98
2022-12-27T10:09:35.350Z,83.36
2022-12-27T10:10:35.346Z,82.84
2022-12-27T10:11:35.322Z,83.73
2022-12-27T10:12:35.315Z,83.73
2022-12-27T10:13:35.315Z,83.32
2022-12-27T10:14:35.279Z,82.28
2022-12-27T10:15:35.349Z,81.45
2022-12-27T10:16:35.260Z,81.51
2022-12-27T10:17:35.238Z,81.30
2022-12-27T10:18:35.224Z,81.99
2022-12-27T10:19:35.214Z,87.12
2022-12-27T10:20:35.199Z,87.78
2022-12-27T10:21:35.187Z,86.80
2022-12-27T10:22:35.183Z,86.33
2022-12-27T10:23:35.164Z,86.49
2022-12-27T10:24:35.152Z,87.63
2022-12-27T10:25:35.199Z,87.53
2022-12-27T10:26:35.132Z,85.77
2022-12-27T10:27:35.118Z,84.73
2022-12-27T10:28:35.095Z,87.84
2022-12-27T10:29:35.105Z,84.59
2022-12-27T10:30:35.070Z,86.70
2022-12-27T10:31:35.118Z,87.43
2022-12-27T10:32:35.039Z,87.70
2022-12-27T10:33:35.033Z,88.05
2022-12-27T10:34:35.020Z,84.38
2022-12-27T10:35:35.002Z,85.38
2022-12-27T10:36:34.993Z,90.81
2022-12-27T10:37:34.974Z,88.63
2022-12-27T10:38:34.961Z,88.73
2022-12-27T10:39:34.947Z,88.73
2022-12-27T10:40:34.944Z,91.85
2022-12-27T10:41:34.919Z,91.33
2022-12-27T10:42:34.913Z,89.25
2022-12-27T10:43:34.892Z,89.77
2022-12-27T10:44:34.881Z,87.70
2022-12-27T10:45:34.905Z,87.14
2022-12-27T10:46:34.908Z,88.28
2022-12-27T10:47:34.845Z,86.72
2022-12-27T10:49:02.684Z,85.06
2022-12-27T10:49:35.841Z,87.35
2022-12-27T10:50:34.807Z,88.28
2022-12-27T10:51:34.786Z,87.72
2022-12-27T10:52:34.781Z,88.96
2022-12-27T10:53:34.775Z,87.30
2022-12-27T10:54:34.750Z,88.55
2022-12-27T10:55:34.730Z,89.54
2022-12-27T10:56:34.731Z,88.24
2022-12-27T10:57:34.722Z,86.75
2022-12-27T10:58:34.695Z,87.57
2022-12-27T10:59:34.681Z,89.75
2022-12-27T11:00:34.721Z,88.36
2022-12-27T11:01:34.842Z,87.64
2022-12-27T11:02:34.785Z,87.43
2022-12-27T11:03:34.632Z,85.42
2022-12-27T11:04:34.626Z,90.29
2022-12-27T11:05:34.606Z,89.67
2022-12-27T11:06:34.591Z,91.28
2022-12-27T11:07:34.595Z,97.28
2022-12-27T11:08:34.585Z,92.54
2022-12-27T11:09:34.554Z,98.63
2022-12-27T11:10:34.545Z,99.15
2022-12-27T11:11:34.529Z,98.75
2022-12-27T11:12:34.506Z,99.99
2022-12-27T11:13:34.499Z,95.76
2022-12-27T11:14:34.482Z,92.72
2022-12-27T11:15:34.470Z,99.99
2022-12-27T11:16:34.531Z,99.26
2022-12-27T11:17:34.535Z,99.99
2022-12-27T11:18:34.432Z,98.85
2022-12-27T11:19:34.419Z,99.11
2022-12-27T11:20:34.413Z,99.78
2022-12-27T11:21:34.391Z,94.06
2022-12-27T11:22:34.380Z,92.88
2022-12-27T11:23:34.406Z,95.98
2022-12-27T11:24:34.354Z,99.69
2022-12-27T11:25:34.338Z,97.63
2022-12-27T11:26:34.326Z,99.99
2022-12-27T11:27:34.311Z,93.77
2022-12-27T11:28:34.302Z,90.88
2022-12-27T11:29:34.275Z,97.83
2022-12-27T11:30:34.267Z,99.02
2022-12-27T11:31:34.295Z,99.99
2022-12-27T11:32:34.244Z,99.99
2022-12-27T11:33:34.388Z,97.58
2022-12-27T11:34:34.263Z,99.29
2022-12-27T11:35:34.216Z,98.46
2022-12-27T11:36:34.230Z,96.97
2022-12-27T11:37:34.211Z,99.99
2022-12-27T11:38:34.199Z,99.99
2022-12-27T11:39:34.202Z,99.99
2022-12-27T11:40:34.175Z,99.99
2022-12-27T11:41:34.226Z,98.59
2022-12-27T11:42:34.149Z,99.98
2022-12-27T11:43:34.148Z,96.34
2022-12-27T11:44:34.158Z,95.84
2022-12-27T11:45:34.121Z,96.57
2022-12-27T11:46:34.213Z,96.74
2022-12-27T11:47:34.104Z,80.43
2022-12-27T11:48:34.198Z,84.38
2022-12-27T11:49:34.098Z,78.82
2022-12-27T11:50:34.094Z,81.91
2022-12-27T11:51:34.028Z,73.68
2022-12-27T11:52:34.027Z,73.13
2022-12-27T11:53:34.010Z,78.41
2022-12-27T11:54:34.000Z,73.81
2022-12-27T11:55:33.989Z,80.97
2022-12-27T11:56:33.981Z,72.17
2022-12-27T11:57:33.939Z,82.87
2022-12-27T11:58:34.002Z,75.58
2022-12-27T11:59:33.967Z,73.50
2022-12-27T12:00:33.875Z,85.08
2022-12-27T12:01:34.003Z,81.91
2022-12-27T12:02:33.963Z,79.63
2022-12-27T12:03:33.905Z,78.37
2022-12-27T12:04:33.884Z,72.52
2022-12-27T12:05:33.874Z,80.58
2022-12-27T12:06:34.737Z,74.42
2022-12-27T12:07:33.815Z,71.97
2022-12-27T12:08:33.823Z,74.86
2022-12-27T12:09:33.798Z,77.31
2022-12-27T12:10:33.789Z,75.07
2022-12-27T12:11:33.767Z,69.49
2022-12-27T12:12:33.716Z,70.47
2022-12-27T12:13:33.696Z,71.56
2022-12-27T12:14:33.680Z,80.05
2022-12-27T12:15:33.675Z,77.39
2022-12-27T12:16:33.677Z,79.27
2022-12-27T12:17:36.055Z,76.81
2022-12-27T12:18:33.628Z,84.91
2022-12-27T12:19:33.861Z,86.40
2022-12-27T12:20:33.614Z,79.30
2022-12-27T12:21:33.627Z,79.19
2022-12-27T12:22:33.573Z,77.52
2022-12-27T12:23:33.559Z,74.80
2022-12-27T12:24:33.549Z,73.36
2022-12-27T12:25:33.537Z,79.70
2022-12-27T12:26:33.597Z,83.30
2022-12-27T12:27:33.508Z,71.91
2022-12-27T12:28:58.208Z,73.81
2022-12-27T12:29:34.510Z,77.96
2022-12-27T12:30:33.474Z,74.25
2022-12-27T12:31:33.480Z,73.03
2022-12-27T12:32:33.443Z,70.82
2022-12-27T12:33:33.435Z,70.31
2022-12-27T12:34:33.419Z,70.72
2022-12-27T12:35:33.403Z,67.79
2022-12-27T12:36:33.395Z,72.62
2022-12-27T12:37:33.398Z,73.19
2022-12-27T12:38:33.406Z,75.78
2022-12-27T12:39:33.358Z,77.47
2022-12-27T12:40:33.345Z,67.46
2022-12-27T12:41:33.335Z,65.12
2022-12-27T12:42:33.308Z,67.77
2022-12-27T12:43:33.310Z,64.84
2022-12-27T12:44:39.559Z,67.02
2022-12-27T12:45:34.404Z,67.22
2022-12-27T12:46:33.705Z,64.81
2022-12-27T12:47:33.377Z,68.34
2022-12-27T12:48:33.221Z,66.75
2022-12-27T12:49:33.225Z,63.59
2022-12-27T12:50:33.208Z,65.16
2022-12-27T12:51:33.210Z,64.50
2022-12-27T12:52:33.176Z,70.58
2022-12-27T12:53:33.184Z,70.38